createdAt,value
2023-02-19T00:00:56.945Z,82.58
2023-02-19T00:01:56.918Z,82.40
2023-02-19T00:02:56.894Z,82.30
2023-02-19T00:03:56.868Z,82.18
2023-02-19T00:04:56.893Z,82.18
2023-02-19T00:05:56.877Z,82.11
2023-02-19T00:06:56.841Z,82.10
2023-02-19T00:07:56.824Z,81.84
2023-02-19T00:08:56.805Z,81.90
2023-02-19T00:09:56.799Z,81.97
2023-02-19T00:10:56.809Z,82.00
2023-02-19T00:11:56.820Z,81.99
2023-02-19T00:12:56.763Z,81.99
2023-02-19T00:13:56.736Z,82.01
2023-02-19T00:14:56.728Z,82.05
2023-02-19T00:15:56.758Z,82.17
2023-02-19T00:16:56.696Z,82.17
2023-02-19T00:17:56.813Z,82.21
2023-02-19T00:18:56.701Z,82.24
2023-02-19T00:19:56.660Z,82.26
2023-02-19T00:20:56.663Z,82.19
2023-02-19T00:21:56.636Z,82.25
2023-02-19T00:22:56.618Z,82.32
2023-02-19T00:23:56.688Z,82.36
2023-02-19T00:24:56.614Z,82.50
2023-02-19T00:26:00.972Z,82.50
2023-02-19T00:26:56.585Z,82.53
2023-02-19T00:27:56.557Z,82.50
2023-02-19T00:28:56.550Z,82.51
2023-02-19T00:29:56.588Z,82.56
2023-02-19T00:30:56.542Z,82.43
2023-02-19T00:31:56.656Z,82.36
2023-02-19T00:32:56.504Z,82.15
2023-02-19T00:33:56.498Z,82.04
2023-02-19T00:34:56.535Z,82.09
2023-02-19T00:35:56.517Z,82.21
2023-02-19T00:36:56.477Z,82.34
2023-02-19T00:37:56.462Z,82.22
2023-02-19T00:38:56.428Z,82.21
2023-02-19T00:39:56.407Z,82.35
2023-02-19T00:40:56.426Z,82.35
2023-02-19T00:41:56.417Z,82.48
2023-02-19T00:42:56.412Z,82.47
2023-02-19T00:43:56.356Z,82.51
2023-02-19T00:44:56.429Z,82.59
2023-02-19T00:45:56.364Z,82.65
2023-02-19T00:46:56.349Z,82.57
2023-02-19T00:47:56.371Z,82.52
2023-02-19T00:48:56.372Z,82.45
2023-02-19T00:49:56.364Z,82.48
2023-02-19T00:50:56.282Z,82.52
2023-02-19T00:51:56.309Z,82.40
2023-02-19T00:52:56.269Z,81.87
2023-02-19T00:53:56.280Z,81.71
2023-02-19T00:54:56.291Z,81.79
2023-02-19T00:55:56.251Z,81.87
2023-02-19T00:56:56.214Z,81.81
2023-02-19T00:57:56.202Z,81.49
2023-02-19T00:58:56.169Z,81.30
2023-02-19T00:59:56.189Z,81.30
2023-02-19T01:00:56.144Z,81.38
2023-02-19T01:01:56.185Z,81.44
2023-02-19T01:02:56.128Z,81.42
2023-02-19T01:03:56.112Z,81.42
2023-02-19T01:04:56.133Z,81.12
2023-02-19T01:05:56.123Z,81.01
2023-02-19T01:06:56.066Z,81.21
2023-02-19T01:07:56.056Z,81.54
2023-02-19T01:08:56.052Z,81.79
2023-02-19T01:09:56.035Z,82.05
2023-02-19T01:10:56.025Z,82.12
2023-02-19T01:11:56.034Z,82.24
2023-02-19T01:12:56.011Z,82.26
2023-02-19T01:13:55.982Z,82.29
2023-02-19T01:14:55.952Z,82.40
2023-02-19T01:15:55.990Z,82.45
2023-02-19T01:16:55.939Z,82.58
2023-02-19T01:17:55.958Z,82.62
2023-02-19T01:18:55.919Z,82.54
2023-02-19T01:19:55.888Z,82.63
2023-02-19T01:20:55.885Z,82.62
2023-02-19T01:21:55.870Z,82.77
2023-02-19T01:22:55.869Z,82.91
2023-02-19T01:23:55.898Z,82.96
2023-02-19T01:24:55.846Z,82.83
2023-02-19T01:25:55.839Z,82.42
2023-02-19T01:26:55.813Z,82.11
2023-02-19T01:27:55.807Z,82.18
2023-02-19T01:28:55.781Z,82.28
2023-02-19T01:29:55.805Z,82.41
2023-02-19T01:30:55.766Z,82.48
2023-02-19T01:31:55.893Z,82.49
2023-02-19T01:32:55.729Z,82.47
2023-02-19T01:33:55.747Z,82.51
2023-02-19T01:34:55.729Z,82.53
2023-02-19T01:35:55.724Z,82.73
2023-02-19T01:36:55.699Z,82.87
2023-02-19T01:37:55.666Z,83.05
2023-02-19T01:38:55.652Z,83.14
2023-02-19T01:39:55.639Z,83.28
2023-02-19T01:40:55.636Z,83.36
2023-02-19T01:41:55.653Z,83.41
2023-02-19T01:42:55.604Z,83.35
2023-02-19T01:43:55.609Z,83.31
2023-02-19T01:44:55.586Z,83.23
2023-02-19T01:45:55.581Z,83.05
2023-02-19T01:46:55.569Z,83.13
2023-02-19T01:47:55.584Z,83.01
2023-02-19T01:48:55.554Z,82.97
2023-02-19T01:49:55.523Z,83.04
2023-02-19T01:50:55.502Z,83.02
2023-02-19T01:51:55.488Z,82.78
2023-02-19T01:52:55.493Z,82.52
2023-02-19T01:53:55.496Z,82.54
2023-02-19T01:54:55.455Z,82.36
2023-02-19T01:55:55.450Z,82.03
2023-02-19T01:56:55.417Z,82.04
2023-02-19T01:57:55.410Z,81.89
2023-02-19T01:58:55.421Z,82.04
2023-02-19T01:59:55.430Z,82.07
2023-02-19T02:00:55.472Z,82.11
2023-02-19T02:01:55.396Z,82.24
2023-02-19T02:03:01.838Z,82.15
2023-02-19T02:03:55.370Z,82.38
2023-02-19T02:04:55.347Z,82.53
2023-02-19T02:05:55.347Z,82.56
2023-02-19T02:06:55.329Z,82.42
2023-02-19T02:07:55.359Z,82.46
2023-02-19T02:08:55.266Z,82.30
2023-02-19T02:09:55.261Z,82.40
2023-02-19T02:10:55.252Z,82.28
2023-02-19T02:11:55.272Z,82.34
2023-02-19T02:12:55.220Z,82.16
2023-02-19T02:13:55.209Z,82.17
2023-02-19T02:14:55.200Z,82.23
2023-02-19T02:15:55.201Z,82.26
2023-02-19T02:16:55.201Z,82.22
2023-02-19T02:17:55.182Z,82.41
2023-02-19T02:18:55.141Z,82.52
2023-02-19T02:19:55.142Z,82.62
2023-02-19T02:20:55.162Z,82.52
2023-02-19T02:21:55.108Z,82.37
2023-02-19T02:22:55.095Z,82.09
2023-02-19T02:23:55.249Z,81.89
2023-02-19T02:24:55.066Z,82.04
2023-02-19T02:25:55.052Z,82.03
2023-02-19T02:26:55.091Z,81.90
2023-02-19T02:27:55.034Z,81.93
2023-02-19T02:28:55.010Z,82.16
2023-02-19T02:29:55.039Z,82.07
2023-02-19T02:30:55.082Z,82.00
2023-02-19T02:31:55.086Z,82.15
2023-02-19T02:32:55.001Z,82.30
2023-02-19T02:33:54.956Z,82.22
2023-02-19T02:34:54.970Z,82.28
2023-02-19T02:35:54.969Z,82.35
2023-02-19T02:36:54.919Z,82.47
2023-02-19T02:37:54.915Z,82.57
2023-02-19T02:38:54.890Z,82.63
2023-02-19T02:39:54.875Z,82.37
2023-02-19T02:40:54.866Z,82.19
2023-02-19T02:41:54.891Z,82.18
2023-02-19T02:42:54.862Z,82.35
2023-02-19T02:43:54.835Z,82.38
2023-02-19T02:44:54.816Z,82.57
2023-02-19T02:45:54.897Z,82.67
2023-02-19T02:46:54.831Z,82.65
2023-02-19T02:47:54.802Z,82.79
2023-02-19T02:48:54.767Z,82.63
2023-02-19T02:49:54.757Z,82.64
2023-02-19T02:50:54.741Z,82.63
2023-02-19T02:51:54.766Z,82.62
2023-02-19T02:52:54.707Z,82.67
2023-02-19T02:53:54.734Z,82.54
2023-02-19T02:54:54.695Z,82.68
2023-02-19T02:55:54.693Z,82.53
2023-02-19T02:56:54.690Z,82.49
2023-02-19T02:57:54.652Z,82.51
2023-02-19T02:58:54.647Z,82.61
2023-02-19T02:59:54.638Z,82.64
2023-02-19T03:00:54.610Z,82.71
2023-02-19T03:01:54.704Z,82.79
2023-02-19T03:02:54.574Z,82.85
2023-02-19T03:03:54.583Z,82.85
2023-02-19T03:04:54.561Z,83.03
2023-02-19T03:05:54.593Z,83.07
2023-02-19T03:06:54.531Z,83.16
2023-02-19T03:07:54.525Z,83.23
2023-02-19T03:08:54.531Z,83.36
2023-02-19T03:09:54.490Z,83.22
2023-02-19T03:10:54.474Z,83.29
2023-02-19T03:11:54.524Z,83.20
2023-02-19T03:12:54.459Z,83.24
2023-02-19T03:13:54.437Z,83.15
2023-02-19T03:14:54.441Z,83.08
2023-02-19T03:15:54.416Z,83.14
2023-02-19T03:16:54.404Z,83.16
2023-02-19T03:17:54.463Z,83.23
2023-02-19T03:18:54.371Z,83.45
2023-02-19T03:19:54.372Z,83.74
2023-02-19T03:20:54.350Z,84.20
2023-02-19T03:21:54.353Z,84.62
2023-02-19T03:22:54.314Z,84.56
2023-02-19T03:23:54.340Z,84.68
2023-02-19T03:24:54.318Z,84.67
2023-02-19T03:25:54.291Z,84.61
2023-02-19T03:26:54.305Z,84.66
2023-02-19T03:27:54.269Z,84.82
2023-02-19T03:28:54.248Z,84.72
2023-02-19T03:29:54.273Z,84.87
2023-02-19T03:30:54.222Z,84.80
2023-02-19T03:31:54.343Z,84.89
2023-02-19T03:32:54.198Z,84.88
2023-02-19T03:33:54.193Z,84.74
2023-02-19T03:34:54.185Z,84.83
2023-02-19T03:35:54.192Z,84.78
2023-02-19T03:36:54.133Z,84.72
2023-02-19T03:37:54.126Z,84.60
2023-02-19T03:38:54.112Z,84.54
2023-02-19T03:39:54.135Z,84.41
2023-02-19T03:40:54.089Z,84.57
2023-02-19T03:41:54.158Z,84.37
2023-02-19T03:42:56.146Z,84.46
2023-02-19T03:43:54.060Z,84.14
2023-02-19T03:44:54.036Z,84.20
2023-02-19T03:45:54.039Z,84.20
2023-02-19T03:46:54.015Z,84.31
2023-02-19T03:47:54.075Z,84.26
2023-02-19T03:48:53.991Z,84.16
2023-02-19T03:49:53.986Z,84.30
2023-02-19T03:50:53.969Z,84.57
2023-02-19T03:51:53.960Z,84.56
2023-02-19T03:52:53.946Z,84.58
2023-02-19T03:53:53.969Z,84.87
2023-02-19T03:54:53.923Z,84.86
2023-02-19T03:55:53.908Z,84.98
2023-02-19T03:56:53.897Z,85.04
2023-02-19T03:57:53.895Z,85.08
2023-02-19T03:58:53.875Z,85.11
2023-02-19T03:59:53.884Z,85.27
2023-02-19T04:00:53.842Z,85.20
2023-02-19T04:01:53.912Z,85.30
2023-02-19T04:02:53.855Z,85.14
2023-02-19T04:03:53.829Z,85.35
2023-02-19T04:04:53.838Z,85.35
2023-02-19T04:05:53.817Z,85.23
2023-02-19T04:06:53.773Z,85.27
2023-02-19T04:07:53.750Z,85.09
2023-02-19T04:08:53.739Z,85.00
2023-02-19T04:09:53.739Z,84.92
2023-02-19T04:10:53.729Z,84.85
2023-02-19T04:11:53.737Z,84.96
2023-02-19T04:12:53.704Z,84.93
2023-02-19T04:13:53.676Z,84.82
2023-02-19T04:14:53.684Z,84.57
2023-02-19T04:15:53.669Z,84.40
2023-02-19T04:16:53.673Z,84.43
2023-02-19T04:17:53.664Z,84.51
2023-02-19T04:18:53.625Z,84.69
2023-02-19T04:19:53.600Z,84.78
2023-02-19T04:20:53.662Z,85.44
2023-02-19T04:21:53.595Z,86.16
2023-02-19T04:22:53.626Z,86.84
2023-02-19T04:23:53.592Z,86.85
2023-02-19T04:24:53.543Z,87.10
2023-02-19T04:25:53.522Z,87.31
2023-02-19T04:26:53.513Z,87.30
2023-02-19T04:27:53.493Z,87.57
2023-02-19T04:28:53.490Z,87.65
2023-02-19T04:29:53.521Z,87.98
2023-02-19T04:30:53.531Z,87.95
2023-02-19T04:31:53.487Z,87.80
2023-02-19T04:32:53.449Z,88.16
2023-02-19T04:33:53.426Z,87.88
2023-02-19T04:34:54.437Z,88.11
2023-02-19T04:35:53.423Z,88.41
2023-02-19T04:36:53.381Z,88.32
2023-02-19T04:37:53.371Z,88.33
2023-02-19T04:38:53.364Z,88.33
2023-02-19T04:39:53.395Z,88.45
2023-02-19T04:40:53.335Z,88.66
2023-02-19T04:41:53.371Z,88.65
2023-02-19T04:42:53.311Z,88.35
2023-02-19T04:43:53.299Z,88.37
2023-02-19T04:44:53.326Z,88.53
2023-02-19T04:45:53.324Z,88.49
2023-02-19T04:46:53.265Z,88.37
2023-02-19T04:47:53.277Z,88.56
2023-02-19T04:48:53.252Z,88.51
2023-02-19T04:49:53.240Z,88.58
2023-02-19T04:50:53.205Z,88.50
2023-02-19T04:51:53.206Z,88.50
2023-02-19T04:52:53.185Z,88.52
2023-02-19T04:53:53.243Z,88.58
2023-02-19T04:54:53.171Z,88.67
2023-02-19T04:55:53.139Z,88.52
2023-02-19T04:56:53.148Z,88.64
2023-02-19T04:57:53.114Z,88.73
2023-02-19T04:58:53.121Z,88.57
2023-02-19T04:59:53.116Z,88.67
2023-02-19T05:00:53.104Z,88.66
2023-02-19T05:01:53.127Z,88.70
2023-02-19T05:02:53.051Z,88.69
2023-02-19T05:03:53.045Z,88.76
2023-02-19T05:04:53.030Z,88.74
2023-02-19T05:05:53.052Z,88.75
2023-02-19T05:06:53.012Z,88.71
2023-02-19T05:07:53.016Z,88.75
2023-02-19T05:08:52.987Z,88.70
2023-02-19T05:09:52.966Z,88.68
2023-02-19T05:10:52.953Z,88.59
2023-02-19T05:11:52.970Z,88.78
2023-02-19T05:12:52.942Z,88.87
2023-02-19T05:13:52.911Z,88.87
2023-02-19T05:14:52.900Z,89.01
2023-02-19T05:15:52.891Z,89.13
2023-02-19T05:16:52.869Z,89.31
2023-02-19T05:17:52.883Z,89.48
2023-02-19T05:18:52.857Z,89.48
2023-02-19T05:19:52.840Z,89.14
2023-02-19T05:20:52.853Z,89.10
2023-02-19T05:21:52.830Z,89.19
2023-02-19T05:22:52.802Z,89.15
2023-02-19T05:23:52.822Z,89.30
2023-02-19T05:24:52.816Z,89.42
2023-02-19T05:25:52.756Z,89.50
2023-02-19T05:26:52.751Z,89.61
2023-02-19T05:27:52.717Z,89.66
2023-02-19T05:28:52.717Z,89.54
2023-02-19T05:29:52.742Z,89.20
2023-02-19T05:30:52.706Z,89.23
2023-02-19T05:31:52.792Z,89.19
2023-02-19T05:32:52.670Z,88.89
2023-02-19T05:33:52.657Z,88.91
2023-02-19T05:34:52.677Z,88.88
2023-02-19T05:35:52.659Z,88.92
2023-02-19T05:36:52.613Z,88.96
2023-02-19T05:37:52.593Z,88.82
2023-02-19T05:38:52.599Z,88.85
2023-02-19T05:39:52.576Z,88.80
2023-02-19T05:40:52.564Z,88.83
2023-02-19T05:41:52.568Z,88.63
2023-02-19T05:42:52.559Z,88.48
2023-02-19T05:43:52.528Z,88.72
2023-02-19T05:44:52.539Z,88.77
2023-02-19T05:45:52.506Z,88.75
2023-02-19T05:46:52.500Z,88.71
2023-02-19T05:47:52.493Z,88.87
2023-02-19T05:48:52.503Z,88.90
2023-02-19T05:49:52.448Z,88.77
2023-02-19T05:50:52.427Z,88.97
2023-02-19T05:51:52.421Z,88.98
2023-02-19T05:52:52.406Z,89.00
2023-02-19T05:53:52.424Z,89.08
2023-02-19T05:54:52.394Z,89.14
2023-02-19T05:55:52.367Z,89.27
2023-02-19T05:56:52.374Z,89.16
2023-02-19T05:57:52.350Z,89.20
2023-02-19T05:58:52.358Z,89.21
2023-02-19T05:59:52.373Z,89.12
2023-02-19T06:00:52.385Z,89.15
2023-02-19T06:01:52.298Z,89.23
2023-02-19T06:02:52.319Z,89.02
2023-02-19T06:03:52.339Z,89.25
2023-02-19T06:04:52.260Z,89.26
2023-02-19T06:05:52.281Z,89.10
2023-02-19T06:06:52.233Z,89.08
2023-02-19T06:07:52.224Z,89.06
2023-02-19T06:08:52.232Z,89.16
2023-02-19T06:09:52.195Z,89.26
2023-02-19T06:10:52.192Z,89.00
2023-02-19T06:11:52.210Z,88.88
2023-02-19T06:12:52.150Z,88.89
2023-02-19T06:13:52.170Z,89.00
2023-02-19T06:14:52.129Z,89.08
2023-02-19T06:15:52.135Z,89.05
2023-02-19T06:16:52.105Z,89.05
2023-02-19T06:17:52.144Z,89.05
2023-02-19T06:18:52.083Z,89.12
2023-02-19T06:19:52.073Z,88.99
2023-02-19T06:20:52.044Z,88.99
2023-02-19T06:21:52.034Z,89.00
2023-02-19T06:22:52.028Z,88.91
2023-02-19T06:23:52.057Z,88.95
2023-02-19T06:24:52.014Z,89.00
2023-02-19T06:25:51.996Z,89.06
2023-02-19T06:26:51.987Z,89.04
2023-02-19T06:27:51.993Z,88.98
2023-02-19T06:28:52.008Z,89.03
2023-02-19T06:29:51.968Z,89.02
2023-02-19T06:30:51.958Z,88.82
2023-02-19T06:31:52.022Z,88.93
2023-02-19T06:32:51.923Z,88.89
2023-02-19T06:33:51.922Z,88.85
2023-02-19T06:34:51.941Z,88.94
2023-02-19T06:35:51.910Z,88.87
2023-02-19T06:36:51.864Z,89.02
2023-02-19T06:37:51.870Z,89.16
2023-02-19T06:38:51.854Z,89.21
2023-02-19T06:39:51.822Z,89.23
2023-02-19T06:40:51.813Z,89.24
2023-02-19T06:41:51.818Z,89.36
2023-02-19T06:42:51.773Z,89.36
2023-02-19T06:43:51.898Z,89.32
2023-02-19T06:44:51.748Z,89.26
2023-02-19T06:45:51.782Z,89.27
2023-02-19T06:46:51.765Z,89.30
2023-02-19T06:47:51.747Z,89.14
2023-02-19T06:48:51.725Z,89.04
2023-02-19T06:49:51.722Z,88.98
2023-02-19T06:50:51.698Z,88.69
2023-02-19T06:51:51.689Z,88.40
2023-02-19T06:52:51.657Z,88.46
2023-02-19T06:53:51.660Z,88.44
2023-02-19T06:54:51.625Z,88.22
2023-02-19T06:55:51.610Z,88.17
2023-02-19T06:56:51.609Z,88.12
2023-02-19T06:57:51.596Z,88.12
2023-02-19T06:58:51.583Z,88.08
2023-02-19T06:59:51.590Z,88.24
2023-02-19T07:00:51.631Z,88.25
2023-02-19T07:01:51.553Z,88.27
2023-02-19T07:02:51.518Z,88.29
2023-02-19T07:03:51.522Z,88.29
2023-02-19T07:04:51.488Z,88.39
2023-02-19T07:05:51.512Z,88.49
2023-02-19T07:06:51.467Z,88.59
2023-02-19T07:07:51.457Z,88.63
2023-02-19T07:08:51.461Z,88.59
2023-02-19T07:09:51.466Z,88.50
2023-02-19T07:10:51.410Z,88.51
2023-02-19T07:11:51.496Z,88.53
2023-02-19T07:12:51.382Z,88.43
2023-02-19T07:13:51.376Z,88.40
2023-02-19T07:14:51.393Z,88.37
2023-02-19T07:15:52.290Z,88.11
2023-02-19T07:16:51.332Z,87.82
2023-02-19T07:17:51.345Z,87.75
2023-02-19T07:18:51.312Z,87.76
2023-02-19T07:19:51.304Z,87.71
2023-02-19T07:20:51.285Z,87.70
2023-02-19T07:21:51.284Z,87.83
2023-02-19T07:22:51.262Z,87.42
2023-02-19T07:23:51.275Z,87.49
2023-02-19T07:24:51.247Z,87.61
2023-02-19T07:25:51.216Z,87.47
2023-02-19T07:26:51.225Z,87.26
2023-02-19T07:27:51.196Z,87.22
2023-02-19T07:28:51.215Z,87.28
2023-02-19T07:29:51.236Z,86.97
2023-02-19T07:30:51.172Z,86.99
2023-02-19T07:31:51.262Z,86.97
2023-02-19T07:32:51.137Z,86.90
2023-02-19T07:33:51.188Z,86.94
2023-02-19T07:34:51.120Z,86.66
2023-02-19T07:35:51.145Z,86.64
2023-02-19T07:36:51.085Z,86.28
2023-02-19T07:37:51.070Z,86.38
2023-02-19T07:38:51.076Z,86.00
2023-02-19T07:39:51.038Z,85.82
2023-02-19T07:40:51.022Z,85.49
2023-02-19T07:41:51.052Z,85.07
2023-02-19T07:42:51.009Z,84.55
2023-02-19T07:43:51.011Z,84.45
2023-02-19T07:44:51.023Z,84.10
2023-02-19T07:45:50.999Z,84.23
2023-02-19T07:46:50.953Z,84.33
2023-02-19T07:47:50.968Z,84.20
2023-02-19T07:48:50.928Z,84.17
2023-02-19T07:49:50.903Z,84.42
2023-02-19T07:50:50.895Z,83.98
2023-02-19T07:51:50.890Z,84.09
2023-02-19T07:52:50.881Z,84.10
2023-02-19T07:53:50.952Z,83.99
2023-02-19T07:54:50.863Z,84.31
2023-02-19T07:55:50.860Z,84.22
2023-02-19T07:56:50.850Z,84.16
2023-02-19T07:57:50.803Z,84.20
2023-02-19T07:58:50.798Z,84.49
2023-02-19T07:59:50.807Z,84.42
2023-02-19T08:00:50.812Z,84.33
2023-02-19T08:01:50.752Z,84.23
2023-02-19T08:02:50.752Z,84.62
2023-02-19T08:03:50.748Z,84.55
2023-02-19T08:04:50.715Z,84.33
2023-02-19T08:05:50.737Z,84.20
2023-02-19T08:06:50.692Z,84.30
2023-02-19T08:07:50.680Z,83.76
2023-02-19T08:08:50.674Z,83.89
2023-02-19T08:09:50.645Z,83.86
2023-02-19T08:10:50.674Z,83.62
2023-02-19T08:11:50.684Z,82.91
2023-02-19T08:12:50.611Z,82.91
2023-02-19T08:13:50.602Z,82.60
2023-02-19T08:14:50.582Z,81.69
2023-02-19T08:15:50.583Z,81.70
2023-02-19T08:16:50.573Z,81.96
2023-02-19T08:17:50.582Z,82.14
2023-02-19T08:18:50.537Z,82.41
2023-02-19T08:19:50.536Z,83.01
2023-02-19T08:20:50.506Z,83.47
2023-02-19T08:21:50.721Z,83.57
2023-02-19T08:22:50.520Z,83.45
2023-02-19T08:23:51.270Z,83.61
2023-02-19T08:24:50.455Z,83.49
2023-02-19T08:25:50.433Z,83.38
2023-02-19T08:26:50.452Z,83.28
2023-02-19T08:27:50.416Z,83.47
2023-02-19T08:28:50.417Z,83.69
2023-02-19T08:29:50.435Z,83.97
2023-02-19T08:30:50.471Z,83.80
2023-02-19T08:31:50.524Z,84.05
2023-02-19T08:32:50.355Z,84.26
2023-02-19T08:33:50.342Z,84.13
2023-02-19T08:34:50.329Z,84.41
2023-02-19T08:35:50.369Z,84.48
2023-02-19T08:36:50.302Z,84.50
2023-02-19T08:37:50.305Z,84.45
2023-02-19T08:38:50.272Z,84.35
2023-02-19T08:39:50.297Z,84.66
2023-02-19T08:40:50.272Z,84.78
2023-02-19T08:41:50.262Z,84.93
2023-02-19T08:42:50.218Z,84.96
2023-02-19T08:43:50.213Z,85.14
2023-02-19T08:44:50.214Z,84.76
2023-02-19T08:45:50.207Z,84.83
2023-02-19T08:46:50.166Z,84.77
2023-02-19T08:47:50.185Z,84.70
2023-02-19T08:48:50.170Z,84.77
2023-02-19T08:49:50.147Z,84.91
2023-02-19T08:50:50.117Z,84.76
2023-02-19T08:51:50.126Z,84.73
2023-02-19T08:52:50.094Z,84.49
2023-02-19T08:53:50.123Z,84.48
2023-02-19T08:54:50.088Z,84.45
2023-02-19T08:55:50.050Z,84.45
2023-02-19T08:56:50.051Z,84.30
2023-02-19T08:57:50.727Z,83.98
2023-02-19T08:58:50.013Z,83.81
2023-02-19T08:59:50.033Z,83.69
2023-02-19T09:00:49.984Z,83.76
2023-02-19T09:01:49.975Z,83.74
2023-02-19T09:02:49.964Z,83.91
2023-02-19T09:03:50.000Z,83.59
2023-02-19T09:04:49.937Z,83.58
2023-02-19T09:05:49.975Z,83.59
2023-02-19T09:06:49.936Z,83.49
2023-02-19T09:07:49.901Z,83.20
2023-02-19T09:08:49.880Z,83.19
2023-02-19T09:09:49.872Z,83.01
2023-02-19T09:10:49.861Z,82.82
2023-02-19T09:11:49.872Z,83.22
2023-02-19T09:12:49.828Z,83.28
2023-02-19T09:13:49.819Z,83.14
2023-02-19T09:14:49.807Z,82.71
2023-02-19T09:15:49.889Z,82.43
2023-02-19T09:16:49.780Z,82.40
2023-02-19T09:17:49.787Z,82.20
2023-02-19T09:18:49.749Z,82.16
2023-02-19T09:19:50.909Z,82.16
2023-02-19T09:20:49.719Z,82.13
2023-02-19T09:21:49.714Z,82.28
2023-02-19T09:22:49.699Z,82.04
2023-02-19T09:23:49.729Z,82.02
2023-02-19T09:24:49.684Z,81.94
2023-02-19T09:25:49.665Z,82.10
2023-02-19T09:26:49.658Z,82.24
2023-02-19T09:27:49.643Z,81.98
2023-02-19T09:28:49.668Z,81.70
2023-02-19T09:29:49.654Z,81.69
2023-02-19T09:30:49.667Z,81.43
2023-02-19T09:31:49.680Z,81.36
2023-02-19T09:32:49.577Z,81.50
2023-02-19T09:33:49.559Z,81.66
2023-02-19T09:34:49.554Z,81.95
2023-02-19T09:35:49.568Z,81.50
2023-02-19T09:36:49.531Z,81.56
2023-02-19T09:37:49.505Z,81.42
2023-02-19T09:38:49.492Z,81.19
2023-02-19T09:39:49.480Z,81.27
2023-02-19T09:40:49.470Z,81.34
2023-02-19T09:41:49.516Z,81.09
2023-02-19T09:42:49.453Z,80.86
2023-02-19T09:43:49.427Z,81.00
2023-02-19T09:44:49.423Z,80.96
2023-02-19T09:45:49.412Z,81.07
2023-02-19T09:46:49.389Z,81.24
2023-02-19T09:47:49.422Z,81.33
2023-02-19T09:48:49.366Z,80.92
2023-02-19T09:49:49.353Z,80.58
2023-02-19T09:50:49.346Z,80.74
2023-02-19T09:51:49.330Z,80.27
2023-02-19T09:52:49.329Z,80.20
2023-02-19T09:53:49.370Z,80.16
2023-02-19T09:54:49.291Z,80.01
2023-02-19T09:55:49.272Z,79.56
2023-02-19T09:56:49.262Z,79.25
2023-02-19T09:57:49.267Z,79.05
2023-02-19T09:58:49.252Z,78.88
2023-02-19T09:59:49.257Z,78.56
2023-02-19T10:00:49.216Z,78.71
2023-02-19T10:01:49.245Z,78.67
2023-02-19T10:02:49.185Z,78.83
2023-02-19T10:03:49.174Z,78.71
2023-02-19T10:04:49.207Z,78.81
2023-02-19T10:05:49.189Z,78.52
2023-02-19T10:06:49.134Z,78.66
2023-02-19T10:07:49.173Z,78.57
2023-02-19T10:08:49.104Z,78.63
2023-02-19T10:09:49.091Z,79.04
2023-02-19T10:10:49.084Z,79.17
2023-02-19T10:11:49.105Z,78.99
2023-02-19T10:12:49.047Z,79.15
2023-02-19T10:13:49.063Z,79.30
2023-02-19T10:14:49.026Z,78.09
2023-02-19T10:15:49.050Z,77.77
2023-02-19T10:16:49.020Z,77.56
2023-02-19T10:17:49.022Z,77.36
2023-02-19T10:18:48.989Z,76.99
2023-02-19T10:19:48.976Z,76.41
2023-02-19T10:20:48.971Z,74.66
2023-02-19T10:21:48.929Z,74.43
2023-02-19T10:22:48.928Z,75.79
2023-02-19T10:23:48.956Z,76.19
2023-02-19T10:24:48.901Z,76.65
2023-02-19T10:25:48.893Z,76.74
2023-02-19T10:26:48.861Z,76.58
2023-02-19T10:27:48.860Z,76.58
2023-02-19T10:28:48.863Z,77.19
2023-02-19T10:29:48.871Z,77.56
2023-02-19T10:30:48.821Z,78.12
2023-02-19T10:31:48.960Z,78.33
2023-02-19T10:32:48.789Z,78.63
2023-02-19T10:33:48.794Z,79.19
2023-02-19T10:34:48.763Z,78.99
2023-02-19T10:35:48.797Z,79.46
2023-02-19T10:36:48.736Z,79.15
2023-02-19T10:37:48.787Z,79.61
2023-02-19T10:38:48.715Z,79.67
2023-02-19T10:39:48.713Z,80.03
2023-02-19T10:40:48.699Z,79.55
2023-02-19T10:41:48.707Z,79.94
2023-02-19T10:42:48.654Z,79.89
2023-02-19T10:43:48.671Z,79.36
2023-02-19T10:44:48.641Z,79.04
2023-02-19T10:45:48.639Z,79.51
2023-02-19T10:46:48.623Z,79.65
2023-02-19T10:47:48.644Z,79.69
2023-02-19T10:48:48.620Z,79.64
2023-02-19T10:49:48.591Z,79.45
2023-02-19T10:50:48.580Z,79.67
2023-02-19T10:51:48.623Z,79.81
2023-02-19T10:52:48.530Z,79.43
2023-02-19T10:53:48.586Z,79.31
2023-02-19T10:54:48.518Z,79.51
2023-02-19T10:55:48.488Z,79.84
2023-02-19T10:56:48.476Z,79.36
2023-02-19T10:57:48.463Z,79.64
2023-02-19T10:58:48.460Z,79.48
2023-02-19T10:59:48.474Z,79.66
2023-02-19T11:00:48.471Z,79.91
2023-02-19T11:01:48.510Z,79.45
2023-02-19T11:02:48.435Z,80.02
2023-02-19T11:03:48.426Z,79.96
2023-02-19T11:04:48.410Z,79.72
2023-02-19T11:05:48.429Z,79.95
2023-02-19T11:06:48.357Z,79.64
2023-02-19T11:07:48.339Z,79.74
2023-02-19T11:08:48.340Z,79.76
2023-02-19T11:09:48.337Z,79.77
2023-02-19T11:10:48.329Z,79.87
2023-02-19T11:11:48.323Z,79.81
2023-02-19T11:12:48.263Z,80.09
2023-02-19T11:13:48.287Z,79.84
2023-02-19T11:14:48.765Z,79.58
2023-02-19T11:15:48.275Z,79.94
2023-02-19T11:16:48.226Z,79.97
2023-02-19T11:17:48.271Z,79.95
2023-02-19T11:18:48.220Z,80.25
2023-02-19T11:19:48.225Z,80.09
2023-02-19T11:20:48.206Z,80.23
2023-02-19T11:21:48.186Z,80.00
2023-02-19T11:22:48.137Z,80.04
2023-02-19T11:23:48.154Z,80.34
2023-02-19T11:24:48.118Z,79.95
2023-02-19T11:25:48.100Z,79.64
2023-02-19T11:26:48.099Z,79.62
2023-02-19T11:27:48.077Z,79.93
2023-02-19T11:28:48.088Z,79.53
2023-02-19T11:29:48.092Z,79.25
2023-02-19T11:30:48.044Z,79.48
2023-02-19T11:31:48.163Z,79.11
2023-02-19T11:32:48.034Z,78.89
2023-02-19T11:33:48.020Z,78.96
2023-02-19T11:34:47.980Z,78.99
2023-02-19T11:35:48.012Z,79.22
2023-02-19T11:36:47.972Z,79.14
2023-02-19T11:37:48.058Z,79.25
2023-02-19T11:38:47.962Z,79.24
2023-02-19T11:39:47.936Z,78.94
2023-02-19T11:40:47.912Z,78.76
2023-02-19T11:41:47.925Z,78.76
2023-02-19T11:42:47.888Z,78.05
2023-02-19T11:43:47.867Z,77.94
2023-02-19T11:44:47.858Z,78.15
2023-02-19T11:45:47.857Z,77.93
2023-02-19T11:46:47.874Z,78.22
2023-02-19T11:47:47.839Z,78.04
2023-02-19T11:48:47.806Z,78.23
2023-02-19T11:49:47.814Z,78.03
2023-02-19T11:50:47.798Z,78.15
2023-02-19T11:51:52.340Z,77.76
2023-02-19T11:52:47.764Z,77.74
2023-02-19T11:53:49.779Z,77.73
2023-02-19T11:54:47.731Z,77.48
2023-02-19T11:55:47.709Z,77.53
2023-02-19T11:56:47.705Z,76.83
2023-02-19T11:57:47.692Z,76.85
2023-02-19T11:58:47.707Z,77.13
2023-02-19T11:59:47.691Z,77.10
2023-02-19T12:00:47.641Z,77.37
2023-02-19T12:01:47.688Z,77.44
2023-02-19T12:02:47.643Z,77.79
2023-02-19T12:03:47.610Z,77.39
2023-02-19T12:04:47.662Z,77.42
2023-02-19T12:05:47.610Z,77.31
2023-02-19T12:06:47.578Z,77.53
2023-02-19T12:07:47.571Z,77.53
2023-02-19T12:08:47.546Z,77.45
2023-02-19T12:09:47.630Z,77.78
2023-02-19T12:10:47.536Z,77.65
2023-02-19T12:11:47.538Z,77.15
2023-02-19T12:12:47.489Z,76.81
2023-02-19T12:13:47.553Z,76.95
2023-02-19T12:14:47.472Z,77.25
2023-02-19T12:15:47.469Z,77.09
2023-02-19T12:16:47.445Z,77.45
2023-02-19T12:17:47.472Z,77.40
2023-02-19T12:18:47.423Z,77.36
2023-02-19T12:19:47.462Z,77.20
2023-02-19T12:20:47.473Z,76.89
2023-02-19T12:21:47.412Z,77.07
2023-02-19T12:22:47.356Z,77.01
2023-02-19T12:23:47.422Z,77.11
2023-02-19T12:24:47.347Z,77.27
2023-02-19T12:25:47.318Z,77.45
2023-02-19T12:26:47.309Z,77.05
2023-02-19T12:27:47.300Z,77.33
2023-02-19T12:28:47.316Z,77.30
2023-02-19T12:29:47.302Z,77.31
2023-02-19T12:30:47.249Z,77.19
2023-02-19T12:31:47.293Z,77.68
2023-02-19T12:32:47.242Z,77.61
2023-02-19T12:33:47.228Z,77.54
2023-02-19T12:34:47.203Z,77.24
2023-02-19T12:35:47.224Z,77.43
2023-02-19T12:36:47.176Z,77.20
2023-02-19T12:37:47.168Z,77.11
2023-02-19T12:38:47.164Z,76.85
2023-02-19T12:39:47.150Z,76.84
2023-02-19T12:40:47.126Z,76.28
2023-02-19T12:41:47.146Z,76.25
2023-02-19T12:42:47.096Z,75.99
2023-02-19T12:43:47.089Z,75.91
2023-02-19T12:44:47.085Z,75.69
2023-02-19T12:45:47.119Z,75.43
2023-02-19T12:46:47.052Z,75.94
2023-02-19T12:47:47.074Z,75.75
2023-02-19T12:48:47.021Z,75.59
2023-02-19T12:49:47.256Z,75.66
2023-02-19T12:50:46.991Z,75.76
2023-02-19T12:51:46.998Z,75.27
2023-02-19T12:52:46.963Z,75.43